Time;durP1;ratioP1;P1;durP2;ratioP2;P2;SDS_P1;SDS_P2;PMS_P1;PMS_P2;Temp;Humidity;BMP_temperature;BMP_pressure;BME280_temperature;BME280_humidity;BME280_pressure;Samples;Min_cycle;Max_cycle;Signal;HPM_P1;HPM_P2
2022/07/11 00:00:24;;;;;;;5.25;1.20;;;;;;;21.69;48.92;101736.66;5014798;28;20053;-62
2022/07/11 00:02:52;;;;;;;6.50;1.50;;;;;;;21.61;49.18;101727.25;5027523;28;20056;-62
2022/07/11 00:05:20;;;;;;;4.80;1.15;;;;;;;21.75;49.11;101733.19;5044100;28;20053;-62
2022/07/11 00:07:47;;;;;;;4.32;1.20;;;;;;;21.98;48.25;101720.16;5028959;28;20060;-61
2022/07/11 00:10:14;;;;;;;3.00;0.93;;;;;;;21.79;48.86;101731.31;5027288;28;20050;-61
2022/07/11 00:12:42;;;;;;;3.95;1.15;;;;;;;21.86;48.44;101731.47;5026184;28;20038;-64
2022/07/11 00:15:09;;;;;;;4.10;1.23;;;;;;;21.73;48.92;101729.13;5026996;28;20045;-61
2022/07/11 00:17:36;;;;;;;3.17;0.95;;;;;;;21.80;48.71;101732.13;5042874;28;20054;-65
2022/07/11 00:20:04;;;;;;;3.25;1.10;;;;;;;21.74;48.92;101736.38;5001456;28;20057;-65
2022/07/11 00:22:32;;;;;;;2.35;0.82;;;;;;;21.82;48.32;101725.00;5024219;28;20057;-62
2022/07/11 00:24:59;;;;;;;4.80;1.00;;;;;;;21.79;48.57;101731.31;5027711;28;20057;-62
2022/07/11 00:27:26;;;;;;;2.00;0.80;;;;;;;21.51;49.35;101730.63;5055900;28;20042;-62
2022/07/11 00:29:53;;;;;;;3.17;1.00;;;;;;;21.55;49.20;101730.69;5059812;28;20057;-62
2022/07/11 00:32:21;;;;;;;2.45;0.95;;;;;;;21.43;49.85;101734.41;5019029;28;20049;-64
2022/07/11 00:34:48;;;;;;;2.65;1.00;;;;;;;21.53;49.37;101735.84;5023130;28;20132;-64
2022/07/11 00:37:15;;;;;;;2.65;1.08;;;;;;;21.45;49.34;101737.66;5034685;28;20515;-64
2022/07/11 00:39:43;;;;;;;4.30;1.10;;;;;;;21.32;50.11;101733.31;5049063;28;20056;-64
2022/07/11 00:42:10;;;;;;;3.78;1.10;;;;;;;21.48;49.84;101725.72;5038781;28;20061;-63
2022/07/11 00:44:38;;;;;;;2.60;1.00;;;;;;;21.57;49.74;101722.72;5033327;28;20401;-64
2022/07/11 00:47:05;;;;;;;3.40;1.05;;;;;;;21.51;49.67;101718.56;5023359;28;20069;-63
2022/07/11 00:49:32;;;;;;;4.80;1.10;;;;;;;21.43;49.91;101713.97;5033812;28;20061;-66
2022/07/11 00:52:00;;;;;;;7.72;1.10;;;;;;;21.32;50.01;101708.09;5033235;28;20061;-65
2022/07/11 00:54:28;;;;;;;2.75;0.93;;;;;;;21.41;49.80;101703.09;5020300;28;20049;-65
2022/07/11 00:56:56;;;;;;;4.85;1.17;;;;;;;21.65;49.44;101705.72;5046423;28;20050;-62
2022/07/11 00:59:23;;;;;;;2.65;0.93;;;;;;;21.75;49.13;101698.72;5022506;28;20049;-65
2022/07/11 01:01:50;;;;;;;3.15;0.90;;;;;;;21.60;49.43;101703.16;5043126;28;20046;-66
2022/07/11 01:04:18;;;;;;;11.55;1.02;;;;;;;21.62;49.48;101712.03;5024313;28;20049;-63
2022/07/11 01:06:45;;;;;;;4.63;0.93;;;;;;;21.48;49.74;101705.28;5021300;28;20057;-64
2022/07/11 01:09:12;;;;;;;5.03;1.02;;;;;;;21.40;49.66;101700.66;5026280;28;20053;-63
2022/07/11 01:11:40;;;;;;;2.05;0.85;;;;;;;21.45;50.14;101700.38;5033011;28;20061;-65
2022/07/11 01:14:07;;;;;;;4.80;1.10;;;;;;;21.58;49.74;101696.31;5033073;28;20060;-66
2022/07/11 01:16:35;;;;;;;3.85;1.20;;;;;;;21.43;50.44;101706.38;5041058;28;20069;-62
2022/07/11 01:19:02;;;;;;;6.22;1.00;;;;;;;21.28;50.44;101710.00;5049149;28;20060;-63
2022/07/11 01:21:39;;;;;;;3.17;0.93;;;;;;;21.16;50.79;101699.69;5023698;28;20045;-62
2022/07/11 01:24:08;;;;;;;2.42;0.90;;;;;;;21.44;50.46;101701.56;5021495;28;20064;-63
2022/07/11 01:26:36;;;;;;;2.67;1.13;;;;;;;21.49;49.99;101702.13;5035474;28;20061;-62
2022/07/11 01:29:09;;;;;;;2.95;1.20;;;;;;;21.47;50.16;101698.88;5006531;28;20056;-64
2022/07/11 01:31:43;;;;;;;3.53;1.20;;;;;;;21.47;49.60;101695.22;5031146;28;20052;-63
2022/07/11 01:34:11;;;;;;;2.58;0.90;;;;;;;21.25;50.66;101697.50;5021506;28;20053;-62
2022/07/11 01:36:39;;;;;;;3.15;1.00;;;;;;;21.32;50.59;101694.09;5030007;28;20062;-62
2022/07/11 01:39:06;;;;;;;3.75;0.90;;;;;;;21.36;50.43;101696.97;5047356;28;20647;-64
2022/07/11 01:41:33;;;;;;;4.30;1.23;;;;;;;21.28;50.56;101695.97;5029391;28;20060;-64
2022/07/11 01:44:01;;;;;;;4.20;1.23;;;;;;;21.35;50.51;101700.94;5040144;28;20056;-65
2022/07/11 01:46:28;;;;;;;3.65;1.00;;;;;;;21.40;50.16;101695.88;5035675;28;20061;-64
2022/07/11 01:48:56;;;;;;;4.47;1.17;;;;;;;21.47;50.53;101703.66;5018663;28;20056;-65
2022/07/11 01:51:23;;;;;;;2.22;1.10;;;;;;;21.44;50.37;101699.59;5036526;28;20148;-65
2022/07/11 01:53:52;;;;;;;2.80;0.98;;;;;;;21.44;50.45;101696.78;5036647;28;20061;-65
2022/07/11 01:56:19;;;;;;;4.30;1.20;;;;;;;21.25;50.54;101696.72;5038134;28;20057;-63
2022/07/11 01:58:52;;;;;;;2.35;0.85;;;;;;;21.18;50.77;101700.13;5053355;28;20049;-65
2022/07/11 02:01:19;;;;;;;5.38;1.02;;;;;;;21.15;51.19;101695.25;5024835;28;20053;-66
2022/07/11 02:03:46;;;;;;;5.40;1.05;;;;;;;21.21;50.53;101695.81;5030381;28;20061;-65
2022/07/11 02:06:14;;;;;;;5.30;1.40;;;;;;;21.47;50.59;101698.03;5036776;28;20049;-65
2022/07/11 02:08:41;;;;;;;5.25;1.10;;;;;;;21.40;50.15;101704.28;5030830;28;20049;-64
2022/07/11 02:11:08;;;;;;;3.25;0.95;;;;;;;21.22;50.51;101703.84;5039934;28;20050;-64
2022/07/11 02:13:36;;;;;;;3.95;1.00;;;;;;;21.33;50.65;101700.50;5027952;28;20401;-62
2022/07/11 02:16:04;;;;;;;4.95;1.17;;;;;;;21.27;51.02;101705.53;5030364;28;20507;-62
2022/07/11 02:18:34;;;;;;;1.55;0.88;;;;;;;21.27;50.38;101704.75;5058639;28;20049;-63
2022/07/11 02:21:02;;;;;;;4.32;1.20;;;;;;;21.43;50.21;101699.97;5021737;28;20054;-63
2022/07/11 02:23:29;;;;;;;4.25;1.20;;;;;;;21.54;49.79;101707.44;5027503;28;20052;-66
2022/07/11 02:25:57;;;;;;;5.63;1.20;;;;;;;21.51;50.04;101696.16;5031024;28;20050;-65
2022/07/11 02:28:24;;;;;;;4.45;1.15;;;;;;;21.42;49.97;101704.75;5026295;28;20049;-62
2022/07/11 02:30:51;;;;;;;3.78;1.20;;;;;;;21.45;49.90;101701.22;5043875;28;20054;-61
2022/07/11 02:33:19;;;;;;;4.20;1.10;;;;;;;21.33;50.03;101704.13;5035394;28;20054;-61
2022/07/11 02:35:46;;;;;;;3.22;1.10;;;;;;;21.33;50.30;101694.88;5035003;28;20153;-65
2022/07/11 02:38:14;;;;;;;2.22;1.00;;;;;;;21.28;50.49;101698.78;5023747;28;20050;-65
2022/07/11 02:40:44;;;;;;;3.40;1.02;;;;;;;21.39;50.54;101690.66;5037379;28;20060;-65
2022/07/11 02:43:12;;;;;;;3.72;1.30;;;;;;;21.51;50.30;101694.16;5023594;28;20053;-65
2022/07/11 02:45:40;;;;;;;3.97;0.95;;;;;;;21.45;49.83;101692.81;5031233;28;20088;-62
2022/07/11 02:48:07;;;;;;;3.08;1.10;;;;;;;21.27;50.57;101695.16;5030923;28;20053;-62
2022/07/11 02:50:35;;;;;;;4.88;1.27;;;;;;;21.24;50.63;101703.47;5026519;28;20056;-64
2022/07/11 02:53:02;;;;;;;2.75;1.30;;;;;;;21.22;50.78;101697.41;5020929;28;20048;-66
2022/07/11 02:55:30;;;;;;;4.07;0.90;;;;;;;21.17;50.98;101697.69;5012707;28;21020;-65
2022/07/11 02:57:58;;;;;;;3.08;0.98;;;;;;;21.22;50.59;101695.44;5024983;28;20052;-65
2022/07/11 03:00:25;;;;;;;3.38;0.95;;;;;;;21.27;50.74;101691.53;5032065;28;20064;-66
2022/07/11 03:02:53;;;;;;;4.35;1.20;;;;;;;21.65;49.79;101685.28;5035569;28;20042;-62
2022/07/11 03:05:21;;;;;;;4.13;1.10;;;;;;;21.54;49.90;101696.22;5031079;28;20050;-62
2022/07/11 03:07:48;;;;;;;3.22;1.05;;;;;;;21.27;50.64;101692.34;5049807;28;20382;-62
2022/07/11 03:10:16;;;;;;;3.70;1.10;;;;;;;21.30;50.48;101684.41;5031917;28;20440;-62
2022/07/11 03:12:43;;;;;;;1.95;0.85;;;;;;;21.00;51.07;101676.47;5036397;28;20042;-62
2022/07/11 03:15:11;;;;;;;3.33;1.25;;;;;;;21.13;51.07;101680.78;5048528;28;20050;-62
2022/07/11 03:17:38;;;;;;;6.00;1.10;;;;;;;21.13;51.08;101683.59;5026930;28;20056;-62
2022/07/11 03:20:06;;;;;;;5.35;1.10;;;;;;;21.31;50.90;101675.63;5023448;28;20791;-62
2022/07/11 03:22:33;;;;;;;3.78;1.33;;;;;;;21.19;50.79;101678.53;5026096;28;20488;-65
2022/07/11 03:25:05;;;;;;;2.92;1.13;;;;;;;21.20;50.99;101683.78;5033067;28;20068;-65
2022/07/11 03:27:34;;;;;;;3.33;1.10;;;;;;;20.98;51.36;101680.75;5023399;28;20064;-65
2022/07/11 03:30:03;;;;;;;4.25;1.20;;;;;;;20.96;51.81;101689.50;5045389;28;20053;-64
2022/07/11 03:32:30;;;;;;;3.67;1.00;;;;;;;21.00;51.77;101690.47;5038845;28;20053;-64
2022/07/11 03:37:44;;;;;;;3.92;1.17;;;;;;;21.04;51.46;101679.34;5036866;28;20065;-65
2022/07/11 03:40:11;;;;;;;4.72;1.20;;;;;;;20.91;52.31;101686.16;5042701;28;20061;-65
2022/07/11 03:42:39;;;;;;;3.75;1.40;;;;;;;21.01;51.83;101689.28;5018626;28;20042;-62
2022/07/11 03:45:07;;;;;;;4.63;1.20;;;;;;;20.95;52.00;101684.28;5033800;28;20376;-64
2022/07/11 03:47:36;;;;;;;3.15;1.30;;;;;;;21.15;51.57;101694.44;5029295;28;20049;-65
2022/07/11 03:50:04;;;;;;;3.47;1.15;;;;;;;21.13;51.77;101689.19;5043273;28;20050;-63
2022/07/11 03:52:32;;;;;;;5.25;1.08;;;;;;;21.23;51.51;101688.63;5031350;28;20057;-62
2022/07/11 03:54:59;;;;;;;3.95;1.35;;;;;;;21.00;52.29;101689.63;5031958;28;20042;-61
2022/07/11 03:57:27;;;;;;;3.78;1.23;;;;;;;20.82;52.80;101689.13;5023847;28;20076;-61
2022/07/11 03:59:54;;;;;;;5.72;1.33;;;;;;;20.79;52.88;101691.84;5015072;28;20057;-62
2022/07/11 04:02:21;;;;;;;2.53;1.17;;;;;;;20.92;52.65;101693.41;5034746;28;20049;-64
2022/07/11 04:04:49;;;;;;;5.15;1.17;;;;;;;20.91;52.29;101695.38;5022308;28;20052;-62
2022/07/11 04:07:16;;;;;;;5.63;1.50;;;;;;;20.90;52.63;101692.94;5031968;28;20049;-62
2022/07/11 04:09:44;;;;;;;4.40;1.17;;;;;;;20.99;52.43;101686.00;5012759;28;20053;-63
2022/07/11 04:12:12;;;;;;;4.03;1.20;;;;;;;20.96;52.81;101680.28;5027405;28;20052;-64
2022/07/11 04:14:39;;;;;;;3.53;1.10;;;;;;;20.96;52.83;101681.09;5026757;28;20053;-65
2022/07/11 04:17:06;;;;;;;6.25;1.60;;;;;;;21.01;52.37;101677.25;5029034;28;20480;-65
2022/07/11 04:19:33;;;;;;;4.95;1.50;;;;;;;21.09;52.28;101681.88;5035666;28;20053;-64
2022/07/11 04:22:01;;;;;;;2.85;1.27;;;;;;;21.13;52.14;101688.41;5022050;28;20054;-62
2022/07/11 04:24:28;;;;;;;3.78;1.40;;;;;;;20.86;52.69;101680.81;5036424;28;20057;-62
2022/07/11 04:26:56;;;;;;;4.22;1.48;;;;;;;20.87;52.90;101671.28;5036988;28;20071;-62
2022/07/11 04:29:24;;;;;;;5.13;1.75;;;;;;;21.03;52.01;101683.31;5035238;28;20160;-63
2022/07/11 04:31:51;;;;;;;10.20;1.70;;;;;;;20.93;52.77;101693.03;5028029;28;20049;-62
2022/07/11 04:34:19;;;;;;;4.95;1.25;;;;;;;20.91;52.83;101697.38;5036232;28;20049;-62
2022/07/11 04:36:46;;;;;;;5.13;1.52;;;;;;;20.97;52.81;101699.53;5035096;28;20053;-62
2022/07/11 04:39:13;;;;;;;5.30;1.35;;;;;;;21.03;52.54;101700.13;5033758;28;20053;-63
2022/07/11 04:41:40;;;;;;;3.38;1.33;;;;;;;21.05;52.25;101708.97;5022005;28;20500;-62
2022/07/11 04:44:08;;;;;;;3.65;1.60;;;;;;;21.08;52.39;101705.44;5034984;28;20404;-63
2022/07/11 04:46:35;;;;;;;4.70;1.30;;;;;;;21.16;52.30;101710.09;5044339;28;20100;-63
2022/07/11 04:49:03;;;;;;;2.67;1.17;;;;;;;21.17;52.08;101712.53;5023873;28;20057;-62
2022/07/11 04:51:30;;;;;;;2.40;1.30;;;;;;;21.17;52.12;101709.72;5028535;28;20061;-62
2022/07/11 04:53:57;;;;;;;5.38;1.30;;;;;;;21.16;52.01;101721.28;5027130;28;20038;-62
2022/07/11 04:56:25;;;;;;;4.28;1.60;;;;;;;21.26;51.93;101712.34;5023469;28;20072;-63
2022/07/11 04:58:52;;;;;;;4.90;1.67;;;;;;;21.25;51.63;101707.91;5019197;28;20061;-62
2022/07/11 05:01:19;;;;;;;6.95;1.70;;;;;;;21.10;52.38;101708.72;5023390;28;20045;-62
2022/07/11 05:03:47;;;;;;;5.53;1.88;;;;;;;21.21;52.06;101715.41;5030849;28;20512;-64
2022/07/11 05:06:14;;;;;;;4.30;1.33;;;;;;;20.96;52.64;101714.72;5023165;28;20061;-65
2022/07/11 05:08:42;;;;;;;6.20;1.40;;;;;;;20.93;52.52;101707.03;5022622;28;20096;-65
2022/07/11 05:11:09;;;;;;;6.00;1.48;;;;;;;20.80;52.91;101713.09;5029505;28;20049;-66
2022/07/11 05:13:37;;;;;;;3.38;1.63;;;;;;;20.99;52.79;101721.63;5025035;28;20049;-66
2022/07/11 05:16:05;;;;;;;5.97;1.65;;;;;;;21.06;52.48;101725.44;5029767;28;20060;-65
2022/07/11 05:18:33;;;;;;;8.18;1.77;;;;;;;21.21;52.26;101724.66;5023937;28;20402;-66
2022/07/11 05:21:01;;;;;;;6.70;2.30;;;;;;;20.99;53.13;101728.03;5023280;28;20054;-65
2022/07/11 05:23:28;;;;;;;5.82;1.75;;;;;;;21.10;52.72;101733.94;5025729;28;20414;-65
2022/07/11 05:25:55;;;;;;;4.85;1.70;;;;;;;21.30;52.51;101732.88;5026802;28;20517;-62
2022/07/11 05:28:23;;;;;;;6.63;1.48;;;;;;;21.64;51.43;101734.94;5034275;28;20053;-62
2022/07/11 05:30:50;;;;;;;3.60;1.50;;;;;;;21.57;51.28;101734.75;5032499;28;20049;-62
2022/07/11 05:33:17;;;;;;;6.50;1.42;;;;;;;21.41;51.58;101736.75;5028075;28;20058;-64
2022/07/11 05:35:45;;;;;;;3.60;1.48;;;;;;;21.25;51.67;101738.75;5028383;28;20133;-62
2022/07/11 05:38:12;;;;;;;4.68;1.60;;;;;;;21.27;51.89;101734.41;5027817;28;20053;-65
2022/07/11 05:40:39;;;;;;;3.65;1.30;;;;;;;21.30;52.03;101732.06;5060404;28;20049;-62
2022/07/11 05:43:07;;;;;;;4.55;1.42;;;;;;;21.37;51.94;101744.25;5034382;28;20049;-63
2022/07/11 05:45:35;;;;;;;6.72;1.92;;;;;;;21.59;51.86;101740.81;5022484;28;20053;-63
2022/07/11 05:48:02;;;;;;;7.45;1.67;;;;;;;21.65;51.04;101736.56;5025158;28;20523;-63
2022/07/11 05:50:30;;;;;;;4.82;1.38;;;;;;;21.61;51.13;101735.66;5029548;28;20495;-62
2022/07/11 05:52:58;;;;;;;5.57;1.80;;;;;;;21.68;51.12;101738.63;5034413;28;20503;-62
2022/07/11 05:55:26;;;;;;;3.35;1.25;;;;;;;21.50;51.04;101742.97;5032775;28;20061;-63
2022/07/11 05:57:53;;;;;;;3.55;1.27;;;;;;;21.19;52.29;101735.41;5039080;28;20064;-63
2022/07/11 06:00:25;;;;;;;9.05;1.52;;;;;;;21.36;52.11;101742.63;5032966;28;20511;-62
2022/07/11 06:02:52;;;;;;;5.35;1.73;;;;;;;21.36;51.77;101741.84;5033785;28;20053;-63
2022/07/11 06:05:20;;;;;;;4.25;1.92;;;;;;;21.43;51.54;101734.41;5026901;28;20065;-62
2022/07/11 06:10:34;;;;;;;5.57;1.38;;;;;;;21.48;51.56;101742.53;5034697;28;20057;-65
2022/07/11 06:13:01;;;;;;;6.63;1.75;;;;;;;21.45;51.40;101743.25;5030748;28;20527;-65
2022/07/11 06:15:29;;;;;;;3.85;1.48;;;;;;;21.29;51.47;101739.63;5025990;28;20061;-66
2022/07/11 06:17:56;;;;;;;5.28;1.40;;;;;;;21.21;51.85;101744.25;5027337;28;20045;-62
2022/07/11 06:20:24;;;;;;;5.13;1.38;;;;;;;21.20;51.89;101742.63;5028928;28;20045;-62
2022/07/11 06:22:53;;;;;;;5.70;1.23;;;;;;;21.36;51.71;101755.84;5030536;28;20057;-62
2022/07/11 06:25:20;;;;;;;8.18;1.63;;;;;;;21.47;51.38;101751.31;5037756;28;20056;-66
2022/07/11 06:27:48;;;;;;;11.23;1.73;;;;;;;21.61;51.18;101749.69;5030409;28;20124;-66
2022/07/11 06:30:19;;;;;;;2.72;1.30;;;;;;;21.56;51.44;101747.16;5025588;28;20056;-62
2022/07/11 06:32:47;;;;;;;7.05;1.40;;;;;;;21.48;51.26;101756.53;5025073;28;20504;-62
2022/07/11 06:35:14;;;;;;;5.72;1.58;;;;;;;21.56;51.74;101754.75;5036482;28;20046;-63
2022/07/11 06:37:41;;;;;;;6.35;1.40;;;;;;;21.53;51.16;101745.06;5045049;28;20053;-62
2022/07/11 06:40:11;;;;;;;5.47;1.58;;;;;;;21.42;51.82;101741.19;5041632;28;20064;-63
2022/07/11 06:42:39;;;;;;;5.25;1.33;;;;;;;21.49;51.57;101744.19;5041614;28;20061;-63
2022/07/11 06:45:07;;;;;;;4.50;2.15;;;;;;;21.69;51.04;101747.88;5032552;28;20819;-62
2022/07/11 06:47:35;;;;;;;6.93;1.80;;;;;;;21.72;50.77;101747.13;5019357;28;20068;-62
2022/07/11 06:50:03;;;;;;;5.57;1.75;;;;;;;21.77;50.78;101744.88;5036319;28;20045;-62
2022/07/11 06:52:30;;;;;;;9.05;1.75;;;;;;;21.64;50.86;101743.34;5038714;28;20108;-64
2022/07/11 06:54:58;;;;;;;7.60;1.55;;;;;;;21.76;50.43;101734.81;5019650;28;20045;-66
2022/07/11 06:57:25;;;;;;;5.60;1.38;;;;;;;21.61;50.91;101729.22;5040715;28;20069;-65
2022/07/11 06:59:53;;;;;;;5.88;1.52;;;;;;;21.56;51.36;101738.75;5047257;28;20045;-65
2022/07/11 07:02:23;;;;;;;5.90;1.70;;;;;;;21.51;51.53;101732.59;5037946;28;20061;-65
2022/07/11 07:04:50;;;;;;;;;;;;;;;21.57;51.21;101742.34;5026908;28;20049;-64
2022/07/11 07:07:17;;;;;;;7.18;1.10;;;;;;;21.61;50.95;101743.25;5034616;28;19921;-65
2022/07/11 07:09:45;;;;;;;9.55;1.35;;;;;;;21.72;50.85;101738.72;5035230;28;20057;-66
2022/07/11 07:12:17;;;;;;;5.65;1.70;;;;;;;21.78;50.67;101742.91;5027906;28;20068;-64
2022/07/11 07:14:47;;;;;;;3.60;1.17;;;;;;;21.83;50.46;101737.81;5027678;28;20049;-65
2022/07/11 07:17:14;;;;;;;5.72;1.30;;;;;;;21.77;50.56;101738.44;5017895;28;20046;-65
2022/07/11 07:19:42;;;;;;;6.00;1.30;;;;;;;21.79;50.38;101739.72;5031787;28;20476;-64
2022/07/11 07:22:10;;;;;;;3.03;1.23;;;;;;;21.94;50.37;101749.28;5034331;28;20069;-65
2022/07/11 07:24:37;;;;;;;5.93;1.30;;;;;;;21.89;50.03;101746.78;5024865;28;20057;-65
2022/07/11 07:27:05;;;;;;;3.72;0.90;;;;;;;21.99;49.85;101752.63;5045235;28;20733;-63
2022/07/11 07:29:32;;;;;;;11.57;2.03;;;;;;;22.12;49.77;101739.31;5028165;28;20045;-63
2022/07/11 07:32:01;;;;;;;8.52;1.30;;;;;;;22.37;48.78;101739.84;5032762;28;20423;-63
2022/07/11 07:34:28;;;;;;;7.13;2.25;;;;;;;22.56;48.37;101742.69;5045141;28;20049;-65
2022/07/11 07:36:56;;;;;;;8.32;2.78;;;;;;;22.80;47.92;101742.38;5038656;28;20068;-64
2022/07/11 07:39:23;;;;;;;7.35;1.10;;;;;;;22.74;47.14;101746.66;5031310;28;20064;-63
2022/07/11 07:41:50;;;;;;;4.90;1.30;;;;;;;22.71;47.59;101736.19;5034433;28;20052;-64
2022/07/11 07:44:18;;;;;;;8.90;0.80;;;;;;;23.11;46.46;101726.13;5067390;28;20053;-64
2022/07/11 07:46:46;;;;;;;3.20;1.02;;;;;;;23.11;46.38;101736.56;5039282;28;20145;-65
2022/07/11 07:49:13;;;;;;;3.78;1.20;;;;;;;23.29;46.11;101740.53;5044529;28;20044;-64
2022/07/11 07:51:40;;;;;;;7.30;1.30;;;;;;;23.35;45.86;101742.66;5047247;28;20057;-65
2022/07/11 07:54:08;;;;;;;4.95;1.30;;;;;;;23.56;45.45;101747.84;5045755;28;20044;-66
2022/07/11 07:56:35;;;;;;;3.30;1.15;;;;;;;23.64;45.09;101743.16;5032881;28;20053;-66
2022/07/11 07:59:02;;;;;;;4.45;1.13;;;;;;;23.40;45.60;101733.91;5029536;28;20404;-65
2022/07/11 08:01:35;;;;;;;5.63;1.02;;;;;;;23.50;45.30;101738.09;5031053;28;20546;-65
2022/07/11 08:04:10;;;;;;;5.28;1.00;;;;;;;23.64;45.18;101740.34;5017094;28;20527;-66
2022/07/11 08:06:38;;;;;;;9.73;2.80;;;;;;;23.55;45.26;101742.59;5043157;28;20056;-64
2022/07/11 08:09:06;;;;;;;4.35;1.55;;;;;;;23.70;45.23;101738.81;5032240;28;20396;-65
2022/07/11 08:11:34;;;;;;;3.97;1.27;;;;;;;24.02;44.62;101743.78;5039831;28;20052;-66
2022/07/11 08:14:03;;;;;;;5.00;1.38;;;;;;;23.82;44.39;101741.41;5036434;28;20049;-64
2022/07/11 08:16:31;;;;;;;2.50;0.93;;;;;;;23.65;44.99;101739.13;5044767;28;20060;-67
2022/07/11 08:19:03;;;;;;;3.10;0.93;;;;;;;23.82;44.47;101744.22;5035488;28;20048;-66
2022/07/11 08:21:32;;;;;;;6.40;1.23;;;;;;;23.87;44.26;101741.13;5040511;28;20064;-66
2022/07/11 08:23:59;;;;;;;4.00;0.90;;;;;;;23.94;44.19;101736.38;5050959;28;20244;-64
2022/07/11 08:26:27;;;;;;;5.10;1.20;;;;;;;23.91;44.16;101730.69;5030495;28;20201;-66
2022/07/11 08:29:01;;;;;;;5.78;1.10;;;;;;;24.04;44.26;101726.50;5032223;28;20548;-65
2022/07/11 08:31:28;;;;;;;3.75;1.00;;;;;;;24.18;43.82;101730.31;5042334;28;20050;-66
2022/07/11 08:33:58;;;;;;;4.90;1.10;;;;;;;23.98;44.28;101719.53;5060317;28;20045;-66
2022/07/11 08:36:27;;;;;;;4.68;0.80;;;;;;;24.22;43.98;101708.66;5037276;28;20052;-65
2022/07/11 08:38:55;;;;;;;;;;;;;;;24.30;43.83;101699.09;5041483;28;20053;-66
2022/07/11 08:41:22;;;;;;;5.78;1.23;;;;;;;24.26;44.17;101694.63;5039932;28;19928;-65
2022/07/11 08:43:49;;;;;;;3.70;1.00;;;;;;;24.29;43.50;101703.13;5036920;28;20074;-65
2022/07/11 08:46:17;;;;;;;5.88;1.38;;;;;;;24.23;43.79;101701.03;5017435;28;20053;-66
2022/07/11 08:48:46;;;;;;;3.30;0.90;;;;;;;24.07;43.92;101694.78;5015981;28;20713;-65
2022/07/11 08:51:14;;;;;;;5.97;1.30;;;;;;;23.95;44.61;101704.25;5023746;28;20050;-64
2022/07/11 08:53:43;;;;;;;2.90;1.00;;;;;;;23.98;44.79;101689.41;5036083;28;20049;-65
2022/07/11 08:56:15;;;;;;;3.95;0.88;;;;;;;24.03;44.87;101699.53;5042043;28;20735;-67
2022/07/11 08:58:46;;;;;;;3.55;1.20;;;;;;;24.15;44.49;101688.88;5046728;28;20420;-69
2022/07/11 09:01:31;;;;;;;3.78;1.05;;;;;;;24.22;44.58;101680.50;5043148;28;20045;-69
2022/07/11 09:04:00;;;;;;;4.28;1.00;;;;;;;24.29;44.23;101691.03;5019366;28;20611;-69
2022/07/11 09:06:28;;;;;;;2.53;1.02;;;;;;;24.31;44.60;101689.47;5040370;28;20072;-68
2022/07/11 09:09:00;;;;;;;7.47;1.27;;;;;;;24.11;45.06;101690.03;5033970;28;20064;-68
2022/07/11 09:11:28;;;;;;;3.45;1.00;;;;;;;24.01;45.24;101687.84;5038830;28;20432;-67
2022/07/11 09:13:55;;;;;;;7.45;1.40;;;;;;;24.18;44.82;101688.09;5027705;28;20058;-68
2022/07/11 09:16:28;;;;;;;5.93;1.40;;;;;;;24.19;45.01;101686.09;5048555;28;20049;-67
2022/07/11 09:18:59;;;;;;;4.88;1.42;;;;;;;24.24;44.83;101680.13;5035141;28;20056;-66
2022/07/11 09:26:58;;;;;;;3.65;1.30;;;;;;;24.83;43.88;101682.03;5030665;28;20050;-68
2022/07/11 09:29:26;;;;;;;6.95;1.60;;;;;;;24.65;44.44;101675.41;5019219;28;20046;-66
2022/07/11 09:31:53;;;;;;;8.25;1.40;;;;;;;24.42;44.33;101675.53;5022893;28;20461;-66
2022/07/11 09:34:23;;;;;;;3.00;1.15;;;;;;;24.46;44.83;101668.75;5030862;28;20060;-68
2022/07/11 09:36:56;;;;;;;3.83;1.38;;;;;;;24.72;44.16;101665.06;5033739;28;20133;-65
2022/07/11 09:39:26;;;;;;;3.95;1.33;;;;;;;24.80;44.38;101669.56;5034397;28;20049;-64
2022/07/11 09:41:54;;;;;;;5.28;1.30;;;;;;;24.77;43.89;101673.16;5029152;28;20052;-64
2022/07/11 09:44:33;;;;;;;8.48;1.65;;;;;;;24.69;44.28;101667.81;5022158;28;20054;-64
2022/07/11 09:47:08;;;;;;;4.57;1.25;;;;;;;24.53;44.98;101668.81;5046357;28;20422;-63
2022/07/11 09:49:38;;;;;;;6.13;1.30;;;;;;;24.67;44.27;101675.81;5032614;28;20168;-63
2022/07/11 09:52:13;;;;;;;5.03;1.77;;;;;;;24.50;44.66;101666.78;5038746;28;20052;-64
2022/07/11 09:54:56;;;;;;;5.07;1.20;;;;;;;24.66;44.56;101660.91;5030021;28;20797;-67
2022/07/11 09:57:33;;;;;;;20.38;1.58;;;;;;;24.77;44.35;101666.69;5056051;28;20060;-65
2022/07/11 10:00:13;;;;;;;7.85;1.63;;;;;;;24.72;44.13;101662.22;5044477;28;20483;-65
2022/07/11 10:02:41;;;;;;;6.10;1.65;;;;;;;24.76;44.27;101662.28;5032051;28;20048;-64
2022/07/11 10:05:08;;;;;;;8.68;1.50;;;;;;;24.88;44.27;101659.19;5030018;28;20050;-65
2022/07/11 10:07:36;;;;;;;6.65;1.35;;;;;;;24.80;44.47;101663.91;5032059;28;20084;-64
2022/07/11 10:10:06;;;;;;;6.05;1.27;;;;;;;24.63;44.30;101661.69;5035739;28;20049;-65
2022/07/11 10:12:33;;;;;;;2.70;1.23;;;;;;;24.58;44.61;101662.03;5036948;28;20045;-67
2022/07/11 10:15:06;;;;;;;8.27;1.50;;;;;;;24.53;44.83;101668.81;5026437;28;20061;-65
2022/07/11 10:17:49;;;;;;;3.70;1.40;;;;;;;24.64;44.50;101659.66;5037627;28;20049;-69
2022/07/11 10:20:36;;;;;;;7.78;1.40;;;;;;;24.61;44.32;101658.44;5067643;28;20037;-67
2022/07/11 10:23:22;;;;;;;6.32;1.90;;;;;;;24.71;44.29;101648.50;5030629;28;20049;-64
2022/07/11 10:26:14;;;;;;;7.00;1.58;;;;;;;24.87;44.14;101658.34;5063110;28;20061;-63
2022/07/11 10:28:55;;;;;;;6.70;1.30;;;;;;;24.97;43.61;101671.72;5029657;28;20065;-65
2022/07/11 10:31:24;;;;;;;9.95;1.77;;;;;;;24.80;43.85;101655.47;5032913;28;20053;-64
2022/07/11 10:34:20;;;;;;;6.13;1.80;;;;;;;24.85;43.84;101672.03;5020106;28;20401;-65
2022/07/11 10:36:49;;;;;;;5.82;1.38;;;;;;;24.92;43.58;101672.09;5022970;28;20061;-65
2022/07/11 10:39:26;;;;;;;3.75;1.23;;;;;;;24.86;43.54;101664.38;5023947;28;20623;-66
2022/07/11 10:41:55;;;;;;;5.60;1.10;;;;;;;24.94;43.64;101666.88;5028244;28;20049;-64
2022/07/11 10:44:26;;;;;;;5.72;2.67;;;;;;;25.07;43.00;101670.22;5022552;28;20503;-65
2022/07/11 10:46:54;;;;;;;5.78;1.10;;;;;;;24.91;43.45;101667.66;5030381;28;20491;-65
2022/07/11 10:49:33;;;;;;;5.35;1.42;;;;;;;24.90;43.22;101668.03;5036469;28;20053;-65
2022/07/11 10:52:07;;;;;;;5.57;1.50;;;;;;;25.13;42.78;101677.13;5030252;28;20080;-65
2022/07/11 10:55:03;;;;;;;9.68;2.50;;;;;;;25.31;42.51;101664.81;5053235;28;20061;-64
2022/07/11 10:57:41;;;;;;;7.13;2.03;;;;;;;25.12;42.26;101667.03;5009390;28;20045;-66
2022/07/11 11:00:14;;;;;;;7.82;1.83;;;;;;;25.20;42.62;101674.34;5035385;28;20544;-65
2022/07/11 11:03:01;;;;;;;5.47;1.50;;;;;;;25.15;42.58;101666.25;5012208;28;20160;-65
2022/07/11 11:05:42;;;;;;;4.20;1.08;;;;;;;25.11;42.35;101659.78;5025280;28;20073;-65
2022/07/11 11:08:31;;;;;;;4.45;1.25;;;;;;;25.30;42.32;101673.63;5028093;28;20056;-66
2022/07/11 11:11:00;;;;;;;4.38;1.33;;;;;;;25.31;41.49;101669.63;5036854;28;20060;-66
2022/07/11 11:13:28;;;;;;;5.07;1.10;;;;;;;25.48;41.54;101652.88;5029797;28;20061;-65
2022/07/11 11:15:59;;;;;;;5.90;1.70;;;;;;;25.56;41.33;101642.44;5026508;28;20060;-65
2022/07/11 11:18:34;;;;;;;7.13;1.30;;;;;;;25.57;41.10;101649.72;5048312;28;20072;-65
2022/07/11 11:21:08;;;;;;;4.53;1.00;;;;;;;25.55;41.08;101641.63;5029703;28;20049;-65
2022/07/11 11:23:39;;;;;;;10.90;1.65;;;;;;;25.60;41.07;101643.28;5045994;28;20064;-64
2022/07/11 11:26:13;;;;;;;6.55;1.42;;;;;;;25.67;41.00;101640.50;5023559;28;20065;-66
2022/07/11 11:29:03;;;;;;;8.68;2.00;;;;;;;25.70;40.78;101633.28;5020388;28;20045;-65
2022/07/11 11:31:31;;;;;;;11.40;1.93;;;;;;;25.74;41.20;101646.19;5027765;28;20540;-66
2022/07/11 11:34:00;;;;;;;6.78;1.20;;;;;;;25.75;41.34;101641.34;5013637;28;20053;-66
2022/07/11 11:36:28;;;;;;;6.20;1.10;;;;;;;25.90;41.08;101626.94;5028785;28;20046;-65
2022/07/11 11:38:55;;;;;;;3.15;1.70;;;;;;;25.91;40.82;101622.88;5036201;28;20057;-65
2022/07/11 11:41:30;;;;;;;9.35;2.55;;;;;;;26.11;40.74;101635.53;5031146;28;20045;-68
2022/07/11 11:43:59;;;;;;;3.90;1.10;;;;;;;26.21;40.36;101625.47;5030718;28;20686;-66